Time;durP1;ratioP1;P1;durP2;ratioP2;P2;SDS_P1;SDS_P2;PMS_P1;PMS_P2;Temp;Humidity;BMP_temperature;BMP_pressure;BME280_temperature;BME280_humidity;BME280_pressure;Samples;Min_cycle;Max_cycle;Signal;HPM_P1;HPM_P2
2021/12/14 00:00:27;;;;;;;10.10;7.47;;;;;;;;;;5040750;28;20185;-80
2021/12/14 00:02:54;;;;;;;9.47;7.70;;;;;;;;;;5057390;28;20174;-81
2021/12/14 00:05:22;;;;;;;10.70;8.07;;;;;;;;;;5041039;28;20272;-81
2021/12/14 00:07:48;;;;;;;9.97;8.13;;;;;;;;;;5040840;28;20199;-81
2021/12/14 00:10:41;;;;;;;9.60;7.47;;;;;;;;;;5040647;28;20183;-80
2021/12/14 00:13:13;;;;;;;10.07;7.93;;;;;;;;;;5074970;28;20177;-81
2021/12/14 00:15:39;;;;;;;11.17;8.40;;;;;;;;;;5057368;28;20253;-81
2021/12/14 00:18:07;;;;;;;10.97;8.67;;;;;;;;;;5040124;28;20203;-81
2021/12/14 00:20:43;;;;;;;11.90;9.03;;;;;;;;;;5056819;28;20544;-81
2021/12/14 00:25:38;;;;;;;10.77;8.60;;;;;;;;;;5074893;28;20538;-81
2021/12/14 00:28:07;;;;;;;13.13;9.23;;;;;;;;;;5040649;28;20284;-81
2021/12/14 00:30:33;;;;;;;11.27;8.40;;;;;;;;;;5040523;28;20186;-81
2021/12/14 00:32:59;;;;;;;11.20;8.57;;;;;;;;;;5040470;28;20183;-81
2021/12/14 00:35:26;;;;;;;11.37;8.73;;;;;;;;;;5056928;28;20207;-81
2021/12/14 00:37:53;;;;;;;12.13;8.77;;;;;;;;;;5040235;28;20239;-81
2021/12/14 00:40:29;;;;;;;14.20;9.13;;;;;;;;;;5039996;28;20183;-81
2021/12/14 00:42:57;;;;;;;12.80;9.30;;;;;;;;;;5056668;28;20694;-81
2021/12/14 00:45:24;;;;;;;12.43;9.27;;;;;;;;;;5056503;28;20171;-81
2021/12/14 00:47:51;;;;;;;13.27;8.77;;;;;;;;;;5056973;28;20211;-82
2021/12/14 00:50:18;;;;;;;12.33;8.90;;;;;;;;;;5039740;28;20205;-82
2021/12/14 00:52:47;;;;;;;12.37;8.93;;;;;;;;;;5056165;28;20176;-82
2021/12/14 00:55:14;;;;;;;12.70;9.50;;;;;;;;;;5056534;28;20595;-83
2021/12/14 00:57:40;;;;;;;12.17;9.40;;;;;;;;;;5039887;28;20249;-83
2021/12/14 01:00:09;;;;;;;15.33;9.50;;;;;;;;;;5039805;28;20179;-83
2021/12/14 01:02:36;;;;;;;12.70;8.80;;;;;;;;;;5037946;28;20211;-83
2021/12/14 01:05:07;;;;;;;11.57;8.87;;;;;;;;;;5056145;28;20177;-83
2021/12/14 01:07:33;;;;;;;13.70;9.80;;;;;;;;;;5055722;28;20210;-83
2021/12/14 01:10:01;;;;;;;12.30;8.93;;;;;;;;;;5039703;28;20320;-83
2021/12/14 01:12:54;;;;;;;14.03;9.17;;;;;;;;;;5055789;28;20237;-83
2021/12/14 01:15:27;;;;;;;13.80;9.33;;;;;;;;;;5058695;28;20220;-83
2021/12/14 01:21:21;;;;;;;13.03;8.63;;;;;;;;;;5019399;28;20279;-83
2021/12/14 01:23:47;;;;;;;13.97;9.70;;;;;;;;;;5053259;28;20184;-83
2021/12/14 01:26:17;;;;;;;13.67;9.33;;;;;;;;;;5038996;28;20208;-82
2021/12/14 01:28:44;;;;;;;14.33;9.57;;;;;;;;;;5039200;28;20328;-82
2021/12/14 01:31:21;;;;;;;14.77;9.90;;;;;;;;;;5039173;28;20195;-82
2021/12/14 01:33:49;;;;;;;13.67;8.73;;;;;;;;;;5055607;28;20182;-83
2021/12/14 01:36:30;;;;;;;12.73;9.10;;;;;;;;;;5038883;28;20191;-83
2021/12/14 01:39:23;;;;;;;12.23;8.70;;;;;;;;;;5041266;28;20185;-83
2021/12/14 01:41:52;;;;;;;14.00;8.53;;;;;;;;;;5055280;28;20213;-83
2021/12/14 01:44:19;;;;;;;12.60;8.40;;;;;;;;;;5055222;28;20179;-83
2021/12/14 01:46:53;;;;;;;12.20;8.87;;;;;;;;;;5038654;28;20225;-83
2021/12/14 01:49:21;;;;;;;13.60;8.87;;;;;;;;;;5039377;28;20179;-83
2021/12/14 01:51:49;;;;;;;13.17;9.13;;;;;;;;;;5055132;28;20555;-83
2021/12/14 01:54:16;;;;;;;13.27;8.57;;;;;;;;;;5055255;28;20201;-83
2021/12/14 01:56:43;;;;;;;12.30;8.73;;;;;;;;;;5055045;28;20693;-82
2021/12/14 01:59:17;;;;;;;12.73;8.93;;;;;;;;;;5038789;28;20192;-82
2021/12/14 02:01:55;;;;;;;11.73;8.30;;;;;;;;;;5054769;28;20206;-83
2021/12/14 02:04:23;;;;;;;11.70;8.63;;;;;;;;;;5055003;28;20181;-83
2021/12/14 02:06:55;;;;;;;13.83;9.07;;;;;;;;;;5054744;28;20604;-83
2021/12/14 02:09:21;;;;;;;12.67;8.70;;;;;;;;;;5054960;28;20179;-83
2021/12/14 02:11:51;;;;;;;13.23;9.07;;;;;;;;;;5054542;28;20666;-83
2021/12/14 02:14:18;;;;;;;16.00;9.73;;;;;;;;;;5054365;28;20718;-83
2021/12/14 02:16:47;;;;;;;13.40;9.17;;;;;;;;;;5038348;28;20250;-83
2021/12/14 02:19:14;;;;;;;13.03;8.60;;;;;;;;;;5054584;28;20529;-83
2021/12/14 02:21:41;;;;;;;12.80;8.20;;;;;;;;;;5037940;28;20207;-83
2021/12/14 02:24:08;;;;;;;14.63;9.27;;;;;;;;;;5054984;28;20540;-83
2021/12/14 02:26:35;;;;;;;11.83;8.63;;;;;;;;;;5054369;28;20182;-83
2021/12/14 02:29:04;;;;;;;11.37;7.93;;;;;;;;;;5054704;28;20172;-83
2021/12/14 02:31:30;;;;;;;12.83;8.40;;;;;;;;;;5037839;28;20188;-83
2021/12/14 02:33:57;;;;;;;13.40;8.40;;;;;;;;;;5054476;28;20179;-83
2021/12/14 02:36:28;;;;;;;11.67;8.37;;;;;;;;;;5037916;28;20249;-83
2021/12/14 02:39:06;;;;;;;13.47;8.60;;;;;;;;;;5037864;28;20179;-83
2021/12/14 02:41:32;;;;;;;13.80;8.97;;;;;;;;;;5054157;28;20204;-82
2021/12/14 02:44:00;;;;;;;11.83;8.30;;;;;;;;;;5054909;28;20277;-80
2021/12/14 02:46:28;;;;;;;13.17;8.33;;;;;;;;;;5038211;28;20174;-82
2021/12/14 02:48:59;;;;;;;12.17;8.53;;;;;;;;;;5038328;28;20233;-82
2021/12/14 02:51:27;;;;;;;12.37;8.70;;;;;;;;;;5054188;28;20171;-82
2021/12/14 02:53:56;;;;;;;11.47;7.53;;;;;;;;;;5054244;28;20191;-82
2021/12/14 02:56:24;;;;;;;13.03;8.07;;;;;;;;;;5054568;28;20178;-82
2021/12/14 02:58:55;;;;;;;12.10;8.60;;;;;;;;;;5054404;28;20179;-82
2021/12/14 03:01:21;;;;;;;11.83;8.27;;;;;;;;;;5054194;28;20244;-82
2021/12/14 03:03:47;;;;;;;11.63;7.90;;;;;;;;;;5054249;28;20243;-82
2021/12/14 03:06:19;;;;;;;10.17;7.47;;;;;;;;;;5054011;28;20170;-82
2021/12/14 03:08:56;;;;;;;12.67;8.60;;;;;;;;;;5039007;28;20178;-82
2021/12/14 03:11:23;;;;;;;9.80;7.13;;;;;;;;;;5039302;28;20239;-82
2021/12/14 03:13:51;;;;;;;11.60;7.93;;;;;;;;;;5054451;28;20606;-82
2021/12/14 03:16:25;;;;;;;11.23;7.37;;;;;;;;;;5037982;28;20182;-82
2021/12/14 03:18:52;;;;;;;9.60;6.57;;;;;;;;;;5054317;28;20659;-82
2021/12/14 03:21:20;;;;;;;9.00;7.30;;;;;;;;;;5037609;28;20344;-82
2021/12/14 03:23:48;;;;;;;9.80;7.03;;;;;;;;;;5037620;28;20646;-82
2021/12/14 03:26:17;;;;;;;9.20;6.67;;;;;;;;;;5057017;28;20640;-82
2021/12/14 03:28:47;;;;;;;10.17;7.43;;;;;;;;;;5041424;28;20173;-82
2021/12/14 03:31:16;;;;;;;7.53;5.87;;;;;;;;;;5057667;28;20179;-82
2021/12/14 03:33:44;;;;;;;7.40;5.53;;;;;;;;;;5058081;28;20183;-82
2021/12/14 03:36:12;;;;;;;9.07;5.73;;;;;;;;;;5041727;28;20210;-82
2021/12/14 03:38:43;;;;;;;7.27;5.57;;;;;;;;;;5041550;28;20252;-82
2021/12/14 03:41:10;;;;;;;6.67;5.03;;;;;;;;;;5041113;28;20210;-82
2021/12/14 03:43:37;;;;;;;6.43;5.27;;;;;;;;;;5057723;28;20183;-82
2021/12/14 03:46:03;;;;;;;6.60;5.27;;;;;;;;;;5041393;28;20183;-83
2021/12/14 03:48:30;;;;;;;6.90;5.47;;;;;;;;;;5041158;28;20646;-82
2021/12/14 03:50:56;;;;;;;5.60;4.40;;;;;;;;;;5057460;28;20185;-82
2021/12/14 03:53:23;;;;;;;7.13;5.10;;;;;;;;;;5041495;28;20181;-82
2021/12/14 03:55:52;;;;;;;6.33;4.87;;;;;;;;;;5057480;28;20647;-82
2021/12/14 03:58:20;;;;;;;5.73;4.70;;;;;;;;;;5057402;28;20196;-82
2021/12/14 04:00:51;;;;;;;5.50;4.70;;;;;;;;;;5040828;28;20302;-82
2021/12/14 04:03:18;;;;;;;5.93;4.80;;;;;;;;;;5040930;28;20178;-82
2021/12/14 04:05:45;;;;;;;7.37;5.57;;;;;;;;;;5057203;28;20179;-82
2021/12/14 04:08:11;;;;;;;6.47;5.63;;;;;;;;;;5057354;28;20201;-82
2021/12/14 04:10:39;;;;;;;8.00;6.03;;;;;;;;;;5040453;28;20232;-82
2021/12/14 04:13:05;;;;;;;9.27;6.50;;;;;;;;;;5057265;28;20197;-82
2021/12/14 04:15:32;;;;;;;8.43;6.10;;;;;;;;;;5057210;28;20269;-82
2021/12/14 04:17:58;;;;;;;9.90;6.70;;;;;;;;;;5040800;28;20203;-82
2021/12/14 04:20:32;;;;;;;8.47;6.30;;;;;;;;;;5040312;28;20182;-82
2021/12/14 04:22:58;;;;;;;8.03;5.93;;;;;;;;;;5040607;28;20169;-82
2021/12/14 04:25:27;;;;;;;9.20;6.63;;;;;;;;;;5056933;28;20655;-82
2021/12/14 04:27:53;;;;;;;8.83;6.60;;;;;;;;;;5057165;28;20212;-82
2021/12/14 04:30:21;;;;;;;9.97;6.70;;;;;;;;;;5056808;28;20182;-82
2021/12/14 04:32:48;;;;;;;9.83;7.47;;;;;;;;;;5040466;28;20300;-82
2021/12/14 04:35:14;;;;;;;8.67;6.47;;;;;;;;;;5040333;28;20184;-82
2021/12/14 04:37:42;;;;;;;9.50;7.07;;;;;;;;;;5056830;28;20221;-82
2021/12/14 04:40:36;;;;;;;9.03;6.30;;;;;;;;;;5040369;28;20214;-82
2021/12/14 04:54:09;;;;;;;8.70;6.30;;;;;;;;;;5074604;28;20235;-82
2021/12/14 04:56:38;;;;;;;9.43;6.80;;;;;;;;;;5039859;28;20203;-82
2021/12/14 04:59:16;;;;;;;8.30;6.00;;;;;;;;;;5040103;28;20213;-83
2021/12/14 05:01:44;;;;;;;7.33;5.67;;;;;;;;;;5039895;28;20588;-82
2021/12/14 05:04:11;;;;;;;7.13;5.50;;;;;;;;;;5056620;28;20543;-82
2021/12/14 05:06:50;;;;;;;8.13;6.10;;;;;;;;;;5039594;28;20191;-82
2021/12/14 05:09:22;;;;;;;8.43;6.13;;;;;;;;;;5056439;28;20552;-82
2021/12/14 05:11:49;;;;;;;7.23;5.40;;;;;;;;;;5056281;28;20639;-82
2021/12/14 05:14:15;;;;;;;7.77;5.70;;;;;;;;;;5056192;28;20228;-82
2021/12/14 05:16:42;;;;;;;7.70;5.53;;;;;;;;;;5039353;28;20205;-82
2021/12/14 05:19:09;;;;;;;7.60;5.57;;;;;;;;;;5039607;28;20272;-82
2021/12/14 05:21:47;;;;;;;7.23;5.70;;;;;;;;;;5039230;28;20728;-82
2021/12/14 05:24:15;;;;;;;6.93;5.33;;;;;;;;;;5039927;28;20269;-82
2021/12/14 05:26:42;;;;;;;7.97;5.73;;;;;;;;;;5055896;28;20563;-82
2021/12/14 05:29:10;;;;;;;8.17;5.57;;;;;;;;;;5055933;28;20173;-82
2021/12/14 05:31:41;;;;;;;7.67;5.67;;;;;;;;;;5039164;28;20182;-82
2021/12/14 05:34:07;;;;;;;8.93;6.27;;;;;;;;;;5055640;28;20183;-83
2021/12/14 05:36:33;;;;;;;7.33;5.67;;;;;;;;;;5055735;28;20603;-82
2021/12/14 05:44:23;;;;;;;11.47;7.23;;;;;;;;;;5073535;28;20178;-82
2021/12/14 05:46:50;;;;;;;9.93;7.33;;;;;;;;;;5055094;28;20294;-82
2021/12/14 05:49:26;;;;;;;8.90;6.20;;;;;;;;;;5054969;28;20176;-82
2021/12/14 05:51:53;;;;;;;10.33;6.20;;;;;;;;;;5054983;28;20181;-82
2021/12/14 05:54:21;;;;;;;7.97;5.60;;;;;;;;;;5055439;28;20190;-82
2021/12/14 05:56:47;;;;;;;8.93;5.83;;;;;;;;;;5055123;28;20199;-82
2021/12/14 05:59:17;;;;;;;10.03;7.00;;;;;;;;;;5038842;28;20183;-82
2021/12/14 06:01:43;;;;;;;10.27;6.77;;;;;;;;;;5054733;28;20210;-82
2021/12/14 06:04:09;;;;;;;9.17;6.00;;;;;;;;;;5038835;28;20182;-82
2021/12/14 06:06:43;;;;;;;7.80;5.90;;;;;;;;;;5038536;28;20210;-82
2021/12/14 06:09:09;;;;;;;9.33;6.33;;;;;;;;;;5055181;28;20214;-80
2021/12/14 06:11:36;;;;;;;8.27;6.27;;;;;;;;;;5054768;28;20209;-80
2021/12/14 06:14:03;;;;;;;7.90;5.70;;;;;;;;;;5054983;28;20185;-82
2021/12/14 06:16:29;;;;;;;8.80;5.70;;;;;;;;;;5038395;28;20191;-81
2021/12/14 06:19:11;;;;;;;7.93;5.60;;;;;;;;;;5054962;28;20182;-81
2021/12/14 06:21:37;;;;;;;7.67;5.53;;;;;;;;;;5054822;28;20202;-81
2021/12/14 06:24:08;;;;;;;8.37;5.83;;;;;;;;;;5054903;28;20172;-82
2021/12/14 06:26:38;;;;;;;8.47;5.93;;;;;;;;;;5038224;28;20229;-82
2021/12/14 06:29:09;;;;;;;8.53;5.90;;;;;;;;;;5055199;28;20184;-81
2021/12/14 06:31:36;;;;;;;9.63;6.43;;;;;;;;;;5054694;28;20549;-81
2021/12/14 06:34:16;;;;;;;9.37;6.23;;;;;;;;;;5054832;28;20194;-81
2021/12/14 06:36:51;;;;;;;9.70;5.93;;;;;;;;;;5054154;28;20568;-81
2021/12/14 06:39:17;;;;;;;7.17;5.77;;;;;;;;;;5055069;28;20180;-82
2021/12/14 06:41:43;;;;;;;9.07;6.47;;;;;;;;;;5037991;28;20261;-81
2021/12/14 06:44:09;;;;;;;9.47;7.27;;;;;;;;;;5038240;28;20328;-82
2021/12/14 06:46:37;;;;;;;8.53;6.00;;;;;;;;;;5037998;28;20685;-81
2021/12/14 06:49:05;;;;;;;7.90;5.73;;;;;;;;;;5096558;22;20230;-80
2021/12/14 06:51:36;;;;;;;8.70;5.90;;;;;;;;;;5059346;28;20621;-80
2021/12/14 06:54:05;;;;;;;8.47;6.27;;;;;;;;;;5081133;28;20179;-79
2021/12/14 06:56:32;;;;;;;11.03;5.63;;;;;;;;;;5077044;28;20173;-80
2021/12/14 06:59:04;;;;;;;6.93;5.00;;;;;;;;;;5057746;28;20196;-79
2021/12/14 07:01:32;;;;;;;6.30;4.90;;;;;;;;;;5056384;28;20208;-79
2021/12/14 07:04:03;;;;;;;7.40;5.17;;;;;;;;;;5072764;28;20210;-81
2021/12/14 07:06:29;;;;;;;8.33;6.17;;;;;;;;;;5075728;28;20180;-80
2021/12/14 07:08:57;;;;;;;9.67;5.93;;;;;;;;;;5072525;28;20612;-79
2021/12/14 07:11:25;;;;;;;8.73;5.83;;;;;;;;;;5071487;28;20557;-79
2021/12/14 07:13:53;;;;;;;7.97;6.03;;;;;;;;;;5055239;28;20181;-79
2021/12/14 07:16:27;;;;;;;8.90;6.13;;;;;;;;;;5055852;28;20207;-79
2021/12/14 07:18:54;;;;;;;8.90;6.70;;;;;;;;;;5073775;28;20291;-78
2021/12/14 07:21:38;;;;;;;11.33;6.30;;;;;;;;;;5056313;28;20204;-78
2021/12/14 07:24:22;;;;;;;8.80;6.33;;;;;;;;;;5073186;28;20184;-78
2021/12/14 07:27:08;;;;;;;9.00;6.10;;;;;;;;;;5072796;28;20575;-80
2021/12/14 07:29:34;;;;;;;10.53;6.77;;;;;;;;;;5072894;28;20218;-78
2021/12/14 07:32:00;;;;;;;10.23;6.70;;;;;;;;;;5073475;28;20184;-78
2021/12/14 07:34:26;;;;;;;9.47;6.37;;;;;;;;;;5056327;28;20199;-78
2021/12/14 07:36:53;;;;;;;11.10;7.20;;;;;;;;;;5071795;28;20187;-78
2021/12/14 07:39:21;;;;;;;12.90;7.90;;;;;;;;;;5055902;28;20251;-78
2021/12/14 07:41:48;;;;;;;11.23;7.73;;;;;;;;;;5071792;28;20694;-78
2021/12/14 07:44:20;;;;;;;11.20;7.70;;;;;;;;;;5072134;28;20229;-78
2021/12/14 07:46:58;;;;;;;10.77;7.63;;;;;;;;;;5072722;28;20178;-78
2021/12/14 07:49:33;;;;;;;12.07;8.27;;;;;;;;;;5072533;28;20639;-78
2021/12/14 07:52:02;;;;;;;13.87;8.57;;;;;;;;;;5072723;28;20544;-78
2021/12/14 07:54:35;;;;;;;12.33;8.30;;;;;;;;;;5056244;28;20215;-78
2021/12/14 07:57:03;;;;;;;12.20;7.93;;;;;;;;;;5072609;28;20213;-78
2021/12/14 07:59:31;;;;;;;12.20;7.27;;;;;;;;;;5056040;28;20187;-78
2021/12/14 08:02:16;;;;;;;14.17;8.40;;;;;;;;;;5055145;28;20247;-78
2021/12/14 08:04:44;;;;;;;12.80;8.50;;;;;;;;;;5072268;28;20178;-78
2021/12/14 08:07:20;;;;;;;14.70;8.93;;;;;;;;;;5055911;28;20650;-78
2021/12/14 08:09:51;;;;;;;13.67;8.97;;;;;;;;;;5072034;28;20226;-78
2021/12/14 08:12:27;;;;;;;14.30;9.00;;;;;;;;;;5074496;28;20700;-78
2021/12/14 08:15:09;;;;;;;14.27;8.93;;;;;;;;;;5059080;28;20180;-78
2021/12/14 08:17:36;;;;;;;13.67;8.90;;;;;;;;;;5075523;28;20213;-78
2021/12/14 08:20:03;;;;;;;15.40;9.23;;;;;;;;;;5075733;28;20170;-78
2021/12/14 08:22:38;;;;;;;13.60;9.33;;;;;;;;;;5058720;28;20230;-78
2021/12/14 08:25:05;;;;;;;14.50;9.77;;;;;;;;;;5059406;28;20264;-78
2021/12/14 08:27:31;;;;;;;15.00;9.60;;;;;;;;;;5075548;28;20228;-78
2021/12/14 08:30:03;;;;;;;16.07;10.03;;;;;;;;;;5075495;28;20196;-78
2021/12/14 08:32:31;;;;;;;15.20;9.93;;;;;;;;;;5075580;28;20210;-78
2021/12/14 08:34:59;;;;;;;14.67;9.93;;;;;;;;;;5058711;28;20332;-78
2021/12/14 08:37:25;;;;;;;14.87;10.03;;;;;;;;;;5058807;28;20198;-78
2021/12/14 08:39:59;;;;;;;16.10;10.13;;;;;;;;;;5075320;28;20179;-78
2021/12/14 08:42:33;;;;;;;15.07;10.23;;;;;;;;;;5059078;28;20218;-78
2021/12/14 08:45:01;;;;;;;14.33;9.83;;;;;;;;;;5075347;28;20171;-78
2021/12/14 08:47:35;;;;;;;16.93;10.63;;;;;;;;;;5075200;28;20241;-78
2021/12/14 08:50:04;;;;;;;16.10;10.70;;;;;;;;;;5075333;28;20172;-78
2021/12/14 08:52:30;;;;;;;17.33;10.93;;;;;;;;;;5074874;28;20185;-78
2021/12/14 08:54:57;;;;;;;16.23;11.30;;;;;;;;;;5058657;28;20216;-78
2021/12/14 08:57:25;;;;;;;16.30;10.43;;;;;;;;;;5074914;28;20566;-78
2021/12/14 08:59:56;;;;;;;16.73;11.30;;;;;;;;;;5058336;28;20188;-78
2021/12/14 09:02:24;;;;;;;19.37;12.03;;;;;;;;;;5058548;28;20211;-78
2021/12/14 09:04:53;;;;;;;17.97;11.90;;;;;;;;;;5076132;28;20175;-78
2021/12/14 09:07:24;;;;;;;17.20;11.03;;;;;;;;;;5058364;28;20211;-78
2021/12/14 09:09:52;;;;;;;16.77;11.40;;;;;;;;;;5075101;28;20178;-78
2021/12/14 09:12:24;;;;;;;19.70;12.30;;;;;;;;;;5058246;28;20233;-78
2021/12/14 09:14:51;;;;;;;18.93;12.13;;;;;;;;;;5074050;28;20281;-79
2021/12/14 09:17:18;;;;;;;17.90;12.33;;;;;;;;;;5056038;28;20673;-79
2021/12/14 09:19:50;;;;;;;18.87;12.17;;;;;;;;;;5056289;28;20184;-79
2021/12/14 09:22:18;;;;;;;18.97;11.60;;;;;;;;;;5055521;28;20554;-80
2021/12/14 09:24:44;;;;;;;20.47;12.40;;;;;;;;;;5056085;28;20184;-79
2021/12/14 09:27:16;;;;;;;19.60;12.20;;;;;;;;;;5055895;28;20176;-78
2021/12/14 09:29:42;;;;;;;19.80;12.33;;;;;;;;;;5072590;28;20176;-80
2021/12/14 09:32:10;;;;;;;24.00;15.27;;;;;;;;;;5073490;28;20172;-79
2021/12/14 09:34:38;;;;;;;20.93;13.43;;;;;;;;;;5072338;28;20280;-79
2021/12/14 09:37:07;;;;;;;20.27;14.13;;;;;;;;;;5055713;28;20638;-79
2021/12/14 09:39:35;;;;;;;23.97;15.43;;;;;;;;;;5056043;28;20234;-79
2021/12/14 09:42:05;;;;;;;21.73;13.97;;;;;;;;;;5071836;28;20211;-79
2021/12/14 09:44:32;;;;;;;20.83;13.23;;;;;;;;;;5072397;28;20176;-79
2021/12/14 09:47:01;;;;;;;23.70;13.93;;;;;;;;;;5055553;28;20189;-79
2021/12/14 09:49:28;;;;;;;20.47;12.73;;;;;;;;;;5072195;28;20272;-79
2021/12/14 09:51:57;;;;;;;20.87;13.10;;;;;;;;;;5071777;28;20186;-79
2021/12/14 09:54:24;;;;;;;21.17;13.47;;;;;;;;;;5071874;28;20183;-80
2021/12/14 09:56:59;;;;;;;22.83;13.73;;;;;;;;;;5055247;28;20188;-79
2021/12/14 09:59:25;;;;;;;19.47;12.87;;;;;;;;;;5071896;28;20243;-80
2021/12/14 10:01:56;;;;;;;20.50;13.37;;;;;;;;;;5071621;28;20245;-80
2021/12/14 10:04:32;;;;;;;21.20;13.03;;;;;;;;;;5071792;28;20233;-80
2021/12/14 10:07:02;;;;;;;20.90;12.80;;;;;;;;;;5071786;28;20229;-80
2021/12/14 10:09:31;;;;;;;22.27;14.77;;;;;;;;;;5072222;28;20306;-80
2021/12/14 10:12:16;;;;;;;20.67;13.63;;;;;;;;;;5072041;28;20241;-80
2021/12/14 10:14:43;;;;;;;24.93;14.43;;;;;;;;;;5071966;28;20205;-80
2021/12/14 10:17:12;;;;;;;20.33;13.10;;;;;;;;;;5055166;28;20180;-80
2021/12/14 10:19:38;;;;;;;24.13;13.87;;;;;;;;;;5073309;28;20236;-80
2021/12/14 10:22:09;;;;;;;24.37;13.20;;;;;;;;;;5071710;28;20203;-80
2021/12/14 10:24:35;;;;;;;23.17;12.70;;;;;;;;;;5071796;28;20653;-79
2021/12/14 10:27:03;;;;;;;20.77;12.37;;;;;;;;;;5055167;28;20195;-79
2021/12/14 10:29:30;;;;;;;55.13;24.73;;;;;;;;;;5071207;28;20174;-75
2021/12/14 10:32:02;;;;;;;20.07;12.23;;;;;;;;;;5055112;28;20188;-80
2021/12/14 10:34:29;;;;;;;17.33;11.13;;;;;;;;;;5072497;28;20181;-79
2021/12/14 10:37:07;;;;;;;17.03;11.70;;;;;;;;;;5055612;28;20188;-79
2021/12/14 10:44:47;;;;;;;20.40;11.57;;;;;;;;;;5072783;28;20540;-79
2021/12/14 10:47:14;;;;;;;16.83;11.20;;;;;;;;;;5054612;28;20197;-79
2021/12/14 10:49:41;;;;;;;17.60;10.47;;;;;;;;;;5054714;28;20207;-79
2021/12/14 10:52:14;;;;;;;19.43;11.07;;;;;;;;;;5054419;28;20196;-80
2021/12/14 10:54:41;;;;;;;17.60;11.03;;;;;;;;;;5055109;28;20195;-79
2021/12/14 10:57:09;;;;;;;20.00;11.60;;;;;;;;;;5054462;28;20529;-80
2021/12/14 10:59:38;;;;;;;18.53;10.73;;;;;;;;;;5071446;28;20639;-79
2021/12/14 11:02:05;;;;;;;17.33;10.57;;;;;;;;;;5071599;28;20204;-79
2021/12/14 11:04:38;;;;;;;18.53;11.00;;;;;;;;;;5071173;28;20219;-78
2021/12/14 11:07:07;;;;;;;18.23;8.13;;;;;;;;;;5070841;28;20637;-78
2021/12/14 11:09:42;;;;;;;15.43;9.57;;;;;;;;;;5070479;28;20550;-76
2021/12/14 11:12:25;;;;;;;13.77;7.90;;;;;;;;;;5071799;28;20175;-76
2021/12/14 11:14:54;;;;;;;13.53;9.33;;;;;;;;;;5054280;28;20608;-77
2021/12/14 11:20:11;;;;;;;15.30;9.43;;;;;;;;;;5072152;28;20187;-76
2021/12/14 11:23:12;;;;;;;12.13;8.40;;;;;;;;;;5071627;28;20684;-77
2021/12/14 11:25:46;;;;;;;14.83;8.80;;;;;;;;;;5013197;28;20586;-76
2021/12/14 11:28:19;;;;;;;13.87;9.37;;;;;;;;;;5061365;28;20257;-76
2021/12/14 11:30:56;;;;;;;12.37;8.10;;;;;;;;;;5071727;28;20199;-75
2021/12/14 11:33:26;;;;;;;13.97;9.27;;;;;;;;;;5071680;28;20243;-79
2021/12/14 11:36:11;;;;;;;13.23;9.03;;;;;;;;;;5070924;28;20176;-79
2021/12/14 11:38:53;;;;;;;15.20;9.70;;;;;;;;;;5071780;28;20199;-79
2021/12/14 11:41:38;;;;;;;15.60;10.43;;;;;;;;;;5070336;28;20260;-79
2021/12/14 11:44:11;;;;;;;16.23;10.30;;;;;;;;;;5070760;28;20237;-79
2021/12/14 11:46:52;;;;;;;16.80;10.90;;;;;;;;;;5072675;28;20239;-79
2021/12/14 11:49:18;;;;;;;17.93;11.03;;;;;;;;;;5074275;28;20198;-79
2021/12/14 11:51:45;;;;;;;27.43;16.20;;;;;;;;;;5057755;28;20181;-79
2021/12/14 11:54:11;;;;;;;54.83;28.83;;;;;;;;;;5074396;28;20183;-79
2021/12/14 11:56:37;;;;;;;48.07;25.40;;;;;;;;;;5057943;28;20559;-79
2021/12/14 11:59:06;;;;;;;36.17;21.17;;;;;;;;;;5074201;28;20201;-79
2021/12/14 12:01:32;;;;;;;42.33;23.90;;;;;;;;;;5073947;28;20571;-79
2021/12/14 12:03:59;;;;;;;68.87;37.53;;;;;;;;;;5074388;28;20169;-79
2021/12/14 12:06:44;;;;;;;22.83;14.00;;;;;;;;;;5074575;28;20180;-79
2021/12/14 12:09:35;;;;;;;47.90;26.07;;;;;;;;;;5075449;28;20181;-79
2021/12/14 12:12:07;;;;;;;13.80;8.87;;;;;;;;;;5073937;28;20177;-79
2021/12/14 12:14:33;;;;;;;12.57;8.13;;;;;;;;;;5073962;28;20578;-79
2021/12/14 12:17:09;;;;;;;11.93;7.87;;;;;;;;;;5074057;28;20230;-79
2021/12/14 12:19:35;;;;;;;12.60;7.60;;;;;;;;;;5073925;28;20176;-79
2021/12/14 12:22:15;;;;;;;11.93;7.73;;;;;;;;;;5057159;28;20201;-79
2021/12/14 12:24:46;;;;;;;12.77;8.43;;;;;;;;;;5073947;28;20184;-79
2021/12/14 12:27:40;;;;;;;13.80;8.13;;;;;;;;;;5073659;28;20197;-79
2021/12/14 12:30:09;;;;;;;12.33;8.30;;;;;;;;;;5071633;28;20181;-79
2021/12/14 12:32:35;;;;;;;11.47;8.00;;;;;;;;;;5073387;28;20183;-79
2021/12/14 12:35:02;;;;;;;12.57;8.37;;;;;;;;;;5073662;28;20189;-79
2021/12/14 12:37:41;;;;;;;14.00;8.03;;;;;;;;;;5073920;28;20581;-79
2021/12/14 12:40:12;;;;;;;12.57;8.13;;;;;;;;;;5073821;28;20212;-79
2021/12/14 12:42:39;;;;;;;12.20;7.93;;;;;;;;;;5073334;28;20201;-79
2021/12/14 12:45:06;;;;;;;13.70;8.47;;;;;;;;;;5056958;28;20264;-79
2021/12/14 12:47:32;;;;;;;12.77;7.67;;;;;;;;;;5081368;22;20248;-78
2021/12/14 12:50:00;;;;;;;13.50;7.80;;;;;;;;;;5040271;28;20565;-78
2021/12/14 12:52:34;;;;;;;12.87;8.63;;;;;;;;;;5039683;28;20189;-78
2021/12/14 12:55:28;;;;;;;12.57;7.97;;;;;;;;;;5039971;28;20665;-78
2021/12/14 12:58:13;;;;;;;15.33;9.63;;;;;;;;;;5040614;28;20288;-78
2021/12/14 13:00:52;;;;;;;16.07;10.80;;;;;;;;;;5056136;28;20172;-79
2021/12/14 13:03:25;;;;;;;15.13;10.87;;;;;;;;;;5056157;28;20189;-78
2021/12/14 13:05:55;;;;;;;16.80;10.10;;;;;;;;;;5039842;28;20178;-78
2021/12/14 13:08:24;;;;;;;14.43;8.83;;;;;;;;;;5055841;28;20580;-80
2021/12/14 13:10:50;;;;;;;15.77;8.93;;;;;;;;;;5055779;28;20177;-79
2021/12/14 13:13:35;;;;;;;13.40;9.17;;;;;;;;;;5055909;28;20552;-78
2021/12/14 13:16:01;;;;;;;33.90;20.37;;;;;;;;;;5056010;28;20179;-79
2021/12/14 13:18:27;;;;;;;20.70;13.57;;;;;;;;;;5055802;28;20731;-79
2021/12/14 13:20:58;;;;;;;14.73;9.57;;;;;;;;;;5073360;28;20287;-79
2021/12/14 13:23:38;;;;;;;14.80;9.17;;;;;;;;;;5055956;28;20174;-87
2021/12/14 13:26:23;;;;;;;15.87;9.67;;;;;;;;;;5055989;28;20181;-79
2021/12/14 13:28:49;;;;;;;14.23;8.93;;;;;;;;;;5055703;28;20706;-79
2021/12/14 13:31:30;;;;;;;13.33;8.53;;;;;;;;;;5038938;28;20207;-81
2021/12/14 13:33:56;;;;;;;12.90;8.70;;;;;;;;;;5055986;28;20662;-79
2021/12/14 13:36:22;;;;;;;13.33;8.03;;;;;;;;;;5055827;28;20245;-79
2021/12/14 13:38:50;;;;;;;13.93;8.80;;;;;;;;;;5055516;28;20607;-79
2021/12/14 13:41:42;;;;;;;13.97;8.27;;;;;;;;;;5039172;28;20339;-80
2021/12/14 13:44:08;;;;;;;13.37;8.17;;;;;;;;;;5025246;28;20271;-79
2021/12/14 13:46:35;;;;;;;11.93;8.27;;;;;;;;;;5055333;28;20774;-79
2021/12/14 13:49:01;;;;;;;14.37;9.20;;;;;;;;;;5038937;28;20216;-83
2021/12/14 13:51:29;;;;;;;11.90;7.97;;;;;;;;;;5038801;28;20181;-79
2021/12/14 13:53:56;;;;;;;13.77;10.10;;;;;;;;;;5039407;28;20192;-79
2021/12/14 13:56:33;;;;;;;16.00;10.33;;;;;;;;;;5055478;28;20639;-80
2021/12/14 13:59:00;;;;;;;13.53;9.00;;;;;;;;;;5055154;28;20196;-79
2021/12/14 14:01:41;;;;;;;14.00;10.30;;;;;;;;;;5055126;28;20197;-79
2021/12/14 14:04:08;;;;;;;14.03;9.37;;;;;;;;;;5039329;28;20189;-79
2021/12/14 14:06:35;;;;;;;14.93;7.97;;;;;;;;;;5038690;28;20226;-79
2021/12/14 14:09:13;;;;;;;12.03;8.40;;;;;;;;;;5038436;28;20220;-79
2021/12/14 14:11:45;;;;;;;12.73;8.37;;;;;;;;;;5038547;28;20176;-79
2021/12/14 14:14:11;;;;;;;12.13;7.93;;;;;;;;;;5055153;28;20187;-77
2021/12/14 14:16:40;;;;;;;13.10;8.43;;;;;;;;;;5054991;28;20188;-79
2021/12/14 14:19:09;;;;;;;13.17;8.60;;;;;;;;;;5054696;28;20299;-79
2021/12/14 14:21:35;;;;;;;13.33;8.80;;;;;;;;;;5054748;28;20205;-79
2021/12/14 14:24:02;;;;;;;15.40;9.30;;;;;;;;;;5054771;28;20172;-79
2021/12/14 14:26:31;;;;;;;14.50;9.33;;;;;;;;;;5072423;28;20179;-78
2021/12/14 14:29:07;;;;;;;12.27;8.00;;;;;;;;;;5054277;28;20602;-79
2021/12/14 14:31:42;;;;;;;11.97;7.43;;;;;;;;;;5037730;28;20185;-78
2021/12/14 14:34:17;;;;;;;13.00;8.17;;;;;;;;;;5038873;28;20662;-79
2021/12/14 14:36:45;;;;;;;12.73;8.40;;;;;;;;;;5054197;28;20260;-79
2021/12/14 14:39:22;;;;;;;11.87;7.60;;;;;;;;;;5054886;28;20285;-79
2021/12/14 14:41:59;;;;;;;11.90;7.70;;;;;;;;;;5054292;28;20208;-79
2021/12/14 14:44:35;;;;;;;13.67;8.47;;;;;;;;;;5054457;28;20264;-79
2021/12/14 14:47:07;;;;;;;12.50;7.87;;;;;;;;;;5054411;28;20179;-79
2021/12/14 14:49:33;;;;;;;13.30;7.87;;;;;;;;;;5054136;28;20212;-80
2021/12/14 14:52:01;;;;;;;13.23;8.57;;;;;;;;;;5054122;28;20234;-78
2021/12/14 14:54:33;;;;;;;14.97;8.63;;;;;;;;;;5035262;28;20639;-80
2021/12/14 14:57:11;;;;;;;15.43;8.50;;;;;;;;;;5056165;28;20180;-79
2021/12/14 14:59:42;;;;;;;18.00;11.40;;;;;;;;;;5053658;28;20196;-78
2021/12/14 15:02:09;;;;;;;24.37;15.20;;;;;;;;;;5037204;28;20228;-78
2021/12/14 15:04:53;;;;;;;24.10;15.07;;;;;;;;;;5039054;28;20184;-78
2021/12/14 15:07:19;;;;;;;15.87;10.37;;;;;;;;;;5054276;28;20175;-78
2021/12/14 15:09:46;;;;;;;15.77;9.70;;;;;;;;;;5037938;28;20178;-81
2021/12/14 15:12:19;;;;;;;13.57;9.53;;;;;;;;;;5037494;28;20192;-80
2021/12/14 15:14:45;;;;;;;15.40;9.00;;;;;;;;;;5054108;28;20271;-78
2021/12/14 15:17:17;;;;;;;14.57;9.50;;;;;;;;;;5054030;28;20177;-79
2021/12/14 15:19:47;;;;;;;12.60;8.40;;;;;;;;;;5054038;28;20180;-79